Time;durP1;ratioP1;P1;durP2;ratioP2;P2;SDS_P1;SDS_P2;PMS_P1;PMS_P2;Temp;Humidity;BMP_temperature;BMP_pressure;BME280_temperature;BME280_humidity;BME280_pressure;Samples;Min_cycle;Max_cycle;Signal;HPM_P1;HPM_P2
2023/08/09 00:00:49;;;;;;;5.63;2.77;;;;;;;-145.18;100.00;46636.94;4933542;28;20032;-68
2023/08/09 00:03:14;;;;;;;3.07;2.40;;;;;;;-145.18;100.00;46636.94;4932300;29;20032;-68
2023/08/09 00:05:40;;;;;;;3.63;2.60;;;;;;;-145.18;100.00;46638.91;4932552;28;20035;-68
2023/08/09 00:08:05;;;;;;;6.77;2.90;;;;;;;-145.18;100.00;46635.00;4941215;28;20103;-69
2023/08/09 00:10:33;;;;;;;3.90;2.60;;;;;;;-145.18;100.00;46636.94;4936784;28;20038;-68
2023/08/09 00:12:59;;;;;;;3.17;2.50;;;;;;;-145.18;100.00;46638.91;4935859;28;20032;-68
2023/08/09 00:15:24;;;;;;;6.20;2.87;;;;;;;-145.18;100.00;46636.94;4935899;28;20132;-69
2023/08/09 00:17:49;;;;;;;2.90;2.40;;;;;;;-145.18;100.00;46636.94;4935612;28;20091;-68
2023/08/09 00:20:15;;;;;;;3.90;2.77;;;;;;;-145.18;100.00;46635.00;4944246;28;20114;-68
2023/08/09 00:22:41;;;;;;;4.90;3.30;;;;;;;-145.18;100.00;46633.06;4944807;28;20047;-68
2023/08/09 00:25:09;;;;;;;4.17;2.70;;;;;;;-145.18;100.00;46636.94;4936436;29;20030;-68
2023/08/09 00:27:34;;;;;;;3.70;2.67;;;;;;;-145.18;100.00;46635.00;4936743;29;20380;-68
2023/08/09 00:30:00;;;;;;;5.00;3.40;;;;;;;-145.18;100.00;46635.00;4935149;28;20039;-68
2023/08/09 00:32:26;;;;;;;4.90;3.17;;;;;;;-145.18;100.00;46633.06;4935434;28;20059;-69
2023/08/09 00:34:51;;;;;;;4.00;2.97;;;;;;;-145.18;100.00;46638.91;4937400;28;20110;-68
2023/08/09 00:37:17;;;;;;;4.70;3.60;;;;;;;-145.18;100.00;46636.94;4936851;28;20138;-68
2023/08/09 00:39:42;;;;;;;4.83;3.20;;;;;;;-145.18;100.00;46636.94;4940720;29;20031;-68
2023/08/09 00:42:08;;;;;;;5.43;3.47;;;;;;;-145.18;100.00;46635.00;4951669;28;20042;-68
2023/08/09 00:44:33;;;;;;;8.60;3.47;;;;;;;-145.18;100.00;46633.06;4940451;28;20480;-68
2023/08/09 00:46:59;;;;;;;5.00;3.37;;;;;;;-145.18;100.00;46635.00;4935641;28;20044;-68
2023/08/09 00:49:25;;;;;;;3.67;2.77;;;;;;;-145.18;100.00;46633.06;4950699;28;20082;-68
2023/08/09 00:51:52;;;;;;;3.40;2.53;;;;;;;-145.18;100.00;46633.06;4953108;28;20027;-68
2023/08/09 00:54:20;;;;;;;10.20;3.03;;;;;;;-145.18;100.00;46635.00;4948021;28;20066;-69
2023/08/09 00:56:45;;;;;;;13.00;2.40;;;;;;;-145.18;100.00;46633.06;4934845;28;20483;-68
2023/08/09 00:59:11;;;;;;;11.37;2.47;;;;;;;-145.18;100.00;46631.09;4947518;29;20050;-68
2023/08/09 01:01:36;;;;;;;5.63;2.20;;;;;;;-145.18;100.00;46631.09;4949408;28;20035;-68
2023/08/09 01:04:02;;;;;;;8.70;1.80;;;;;;;-145.18;100.00;46631.09;4939058;28;20657;-68
2023/08/09 01:06:46;;;;;;;2.60;1.73;;;;;;;-145.18;100.00;46631.09;4943105;28;20042;-68
2023/08/09 01:09:17;;;;;;;8.40;1.90;;;;;;;-145.18;100.00;46631.09;4942478;28;20056;-68
2023/08/09 01:11:54;;;;;;;11.77;2.60;;;;;;;-145.18;100.00;46631.09;4934849;29;20035;-69
2023/08/09 01:14:22;;;;;;;4.80;1.77;;;;;;;-145.18;100.00;46636.94;4935842;28;20471;-68
2023/08/09 01:16:51;;;;;;;7.07;1.73;;;;;;;-145.18;100.00;46629.13;4941933;28;20031;-69
2023/08/09 01:19:32;;;;;;;5.90;1.83;;;;;;;-145.18;100.00;46627.19;4935459;28;20102;-68
2023/08/09 01:22:03;;;;;;;2.63;1.73;;;;;;;-145.18;100.00;46633.06;4937854;28;20031;-69
2023/08/09 01:24:29;;;;;;;2.50;1.53;;;;;;;-145.18;100.00;46631.09;4934172;29;20031;-68
2023/08/09 01:26:55;;;;;;;7.77;1.50;;;;;;;-145.18;100.00;46627.19;4934943;29;20099;-68
2023/08/09 01:29:21;;;;;;;2.27;1.50;;;;;;;-145.18;100.00;46629.13;4939279;28;20031;-68
2023/08/09 01:31:46;;;;;;;2.27;1.63;;;;;;;-145.18;100.00;46627.19;4938294;29;20038;-69
2023/08/09 01:34:12;;;;;;;3.27;2.30;;;;;;;-145.18;100.00;46627.19;4938962;28;20404;-68
2023/08/09 01:36:41;;;;;;;3.30;2.10;;;;;;;-145.18;100.00;46625.22;4934643;29;20064;-68
2023/08/09 01:39:14;;;;;;;5.67;1.80;;;;;;;-145.18;100.00;46631.09;4934098;29;20059;-68
2023/08/09 01:41:41;;;;;;;7.87;1.40;;;;;;;-145.18;100.00;46627.19;4936427;28;20028;-69
2023/08/09 01:44:09;;;;;;;1.47;1.10;;;;;;;-145.18;100.00;46629.13;4934920;28;20032;-68
2023/08/09 01:46:35;;;;;;;10.10;1.20;;;;;;;-145.18;100.00;46631.09;4945650;28;20115;-68
2023/08/09 01:49:09;;;;;;;4.03;1.20;;;;;;;-145.18;100.00;46631.09;4934041;29;20475;-65
2023/08/09 01:51:34;;;;;;;2.37;1.63;;;;;;;-145.18;100.00;46631.09;4934523;28;20057;-64
2023/08/09 01:54:00;;;;;;;8.50;1.10;;;;;;;-145.18;100.00;46627.19;4918634;29;20027;-64
2023/08/09 01:56:25;;;;;;;2.03;1.23;;;;;;;-145.18;100.00;46627.19;4935509;29;20035;-64
2023/08/09 01:58:51;;;;;;;1.80;1.20;;;;;;;-145.18;100.00;46629.13;4947124;29;20037;-64
2023/08/09 02:01:17;;;;;;;1.63;1.10;;;;;;;-145.18;100.00;46631.09;4933992;29;20042;-64
2023/08/09 02:03:42;;;;;;;10.33;1.13;;;;;;;-145.18;100.00;46627.19;4937967;28;20035;-64
2023/08/09 02:06:08;;;;;;;2.33;1.60;;;;;;;-145.18;100.00;46627.19;4941566;28;20778;-64
2023/08/09 02:08:33;;;;;;;7.77;1.67;;;;;;;-145.18;100.00;46631.09;4942715;28;20530;-64
2023/08/09 02:10:58;;;;;;;4.67;1.90;;;;;;;-145.18;100.00;46636.94;4934016;28;20031;-64
2023/08/09 02:13:24;;;;;;;7.83;1.60;;;;;;;-145.18;100.00;46629.13;4934015;28;20079;-64
2023/08/09 02:15:49;;;;;;;3.83;1.90;;;;;;;-145.18;100.00;46631.09;4941282;29;20050;-64
2023/08/09 02:18:15;;;;;;;7.07;2.10;;;;;;;-145.18;100.00;46631.09;4939207;28;20031;-64
2023/08/09 02:20:40;;;;;;;12.33;2.53;;;;;;;-145.18;100.00;46635.00;4932361;29;20023;-64
2023/08/09 02:23:06;;;;;;;5.60;2.10;;;;;;;-145.18;100.00;46631.09;4933390;28;20123;-64
2023/08/09 02:25:31;;;;;;;5.57;2.33;;;;;;;-145.18;100.00;46633.06;4933899;29;20055;-64
2023/08/09 02:27:57;;;;;;;5.30;2.33;;;;;;;-145.18;100.00;46633.06;4934104;28;20444;-64
2023/08/09 02:30:23;;;;;;;7.03;2.23;;;;;;;-145.18;100.00;46633.06;4939737;28;20031;-64
2023/08/09 02:32:50;;;;;;;5.27;2.60;;;;;;;-145.18;100.00;46633.06;4951608;28;20543;-64
2023/08/09 02:35:16;;;;;;;6.30;2.70;;;;;;;-145.18;100.00;46631.09;4933697;29;20609;-64
2023/08/09 02:37:41;;;;;;;3.73;3.03;;;;;;;-145.18;100.00;46633.06;4944233;29;20126;-64
2023/08/09 02:40:10;;;;;;;4.07;2.87;;;;;;;-145.18;100.00;46635.00;4933482;28;20119;-64
2023/08/09 02:42:36;;;;;;;4.37;3.60;;;;;;;-145.18;100.00;46635.00;4935343;28;20040;-65
2023/08/09 02:45:02;;;;;;;4.20;3.27;;;;;;;-145.18;100.00;46627.19;4947062;28;20559;-64
2023/08/09 02:47:27;;;;;;;10.27;4.10;;;;;;;-145.18;100.00;46633.06;4944249;29;20522;-64
2023/08/09 02:49:53;;;;;;;11.53;3.57;;;;;;;-145.18;100.00;46629.13;4945006;28;20041;-65
2023/08/09 02:52:18;;;;;;;4.73;3.30;;;;;;;-145.18;100.00;46631.09;4937573;28;20023;-64
2023/08/09 02:54:44;;;;;;;8.80;3.80;;;;;;;-145.18;100.00;46633.06;4947370;28;20663;-64
2023/08/09 02:57:10;;;;;;;9.70;4.33;;;;;;;-145.18;100.00;46633.06;4941985;28;20072;-64
2023/08/09 02:59:35;;;;;;;7.77;3.97;;;;;;;-145.18;100.00;46631.09;4945802;28;20372;-64
2023/08/09 03:02:00;;;;;;;4.97;3.50;;;;;;;-145.18;100.00;46627.19;4945407;29;20024;-64
2023/08/09 03:04:26;;;;;;;6.93;3.00;;;;;;;-145.18;100.00;46631.09;4933054;29;20055;-64
2023/08/09 03:06:52;;;;;;;4.60;3.27;;;;;;;-145.18;100.00;46633.06;4944670;28;20043;-64
2023/08/09 03:09:17;;;;;;;11.77;3.60;;;;;;;-145.18;100.00;46635.00;4933196;29;20036;-64
2023/08/09 03:11:43;;;;;;;7.67;4.00;;;;;;;-145.18;100.00;46629.13;4937202;28;20038;-64
2023/08/09 03:14:10;;;;;;;5.30;3.90;;;;;;;-145.18;100.00;46629.13;4942823;28;20055;-65
2023/08/09 03:16:35;;;;;;;8.10;3.90;;;;;;;-145.18;100.00;46631.09;4948131;28;20035;-64
2023/08/09 03:19:00;;;;;;;6.07;3.83;;;;;;;-145.18;100.00;46633.06;4943804;28;20392;-64
2023/08/09 03:21:26;;;;;;;7.73;4.40;;;;;;;-145.18;100.00;46627.19;4932878;28;20042;-64
2023/08/09 03:23:52;;;;;;;7.70;4.90;;;;;;;-145.18;100.00;46631.09;4936809;28;20039;-65
2023/08/09 03:26:17;;;;;;;9.80;4.80;;;;;;;-145.18;100.00;46633.06;4938855;28;20035;-64
2023/08/09 03:28:42;;;;;;;9.97;4.80;;;;;;;-145.18;100.00;46629.13;4938283;28;20043;-64
2023/08/09 03:31:08;;;;;;;5.93;4.67;;;;;;;-145.18;100.00;46631.09;4939403;28;20566;-64
2023/08/09 03:33:34;;;;;;;8.33;5.00;;;;;;;-145.18;100.00;46633.06;4932181;28;20035;-64
2023/08/09 03:35:59;;;;;;;8.63;4.73;;;;;;;-145.18;100.00;46633.06;4939791;28;20047;-64
2023/08/09 03:38:25;;;;;;;8.00;5.13;;;;;;;-145.18;100.00;46633.06;4931284;28;20036;-64
2023/08/09 03:40:50;;;;;;;8.63;5.23;;;;;;;-145.18;100.00;46633.06;4938354;28;20126;-64
2023/08/09 03:43:15;;;;;;;9.83;4.93;;;;;;;-145.18;100.00;46631.09;4941002;28;20183;-64
2023/08/09 03:45:41;;;;;;;6.57;4.37;;;;;;;-145.18;100.00;46629.13;4936723;29;20043;-64
2023/08/09 03:48:06;;;;;;;11.03;5.63;;;;;;;-145.18;100.00;46629.13;4942472;28;20491;-64
2023/08/09 03:50:32;;;;;;;9.33;5.50;;;;;;;-145.18;100.00;46625.22;4936595;28;20102;-64
2023/08/09 03:52:57;;;;;;;8.33;4.77;;;;;;;-145.18;100.00;46629.13;4946108;28;20034;-64
2023/08/09 03:55:23;;;;;;;8.63;5.83;;;;;;;-145.18;100.00;46621.31;4940834;28;20446;-65
2023/08/09 03:57:48;;;;;;;21.43;5.23;;;;;;;-145.18;100.00;46627.19;4936833;28;20495;-65
2023/08/09 04:00:17;;;;;;;10.07;4.47;;;;;;;-145.18;100.00;46627.19;4943752;28;20082;-65
2023/08/09 04:02:47;;;;;;;7.97;4.80;;;;;;;-145.18;100.00;46627.19;4939808;28;20034;-65
2023/08/09 04:05:14;;;;;;;8.83;4.90;;;;;;;-145.18;100.00;46627.19;4945309;28;20027;-65
2023/08/09 04:07:42;;;;;;;9.03;5.00;;;;;;;-145.18;100.00;46631.09;4948215;28;20078;-65
2023/08/09 04:10:08;;;;;;;9.90;5.40;;;;;;;-145.18;100.00;46629.13;4940146;29;20077;-68
2023/08/09 04:12:37;;;;;;;12.90;5.00;;;;;;;-145.18;100.00;46627.19;4938598;28;20156;-68
2023/08/09 04:15:06;;;;;;;16.93;6.07;;;;;;;-145.18;100.00;46629.13;4943473;28;20774;-68
2023/08/09 04:17:32;;;;;;;14.43;5.77;;;;;;;-145.18;100.00;46629.13;4941664;28;20069;-68
2023/08/09 04:19:59;;;;;;;15.20;6.20;;;;;;;-145.18;100.00;46627.19;4945040;28;20031;-68
2023/08/09 04:22:24;;;;;;;9.33;6.20;;;;;;;-145.18;100.00;46627.19;4941081;28;20035;-68
2023/08/09 04:24:50;;;;;;;11.20;6.57;;;;;;;-145.18;100.00;46627.19;4937425;29;20042;-68
2023/08/09 04:27:15;;;;;;;11.87;6.37;;;;;;;-145.18;100.00;46621.31;4934714;29;20036;-68
2023/08/09 04:29:41;;;;;;;11.87;7.17;;;;;;;-145.18;100.00;46623.28;4935683;28;20044;-68
2023/08/09 04:32:07;;;;;;;9.23;6.50;;;;;;;-145.18;100.00;46627.19;4941987;28;20031;-69
2023/08/09 04:34:32;;;;;;;11.77;7.00;;;;;;;-145.18;100.00;46627.19;4945265;28;20085;-68
2023/08/09 04:36:58;;;;;;;15.73;7.90;;;;;;;-145.18;100.00;46621.31;4936681;28;20047;-68
2023/08/09 04:39:23;;;;;;;13.37;8.57;;;;;;;-145.18;100.00;46625.22;4939620;28;20035;-68
2023/08/09 04:41:49;;;;;;;15.77;8.60;;;;;;;-145.18;100.00;46627.19;4939860;28;20078;-68
2023/08/09 04:44:15;;;;;;;19.80;8.87;;;;;;;-145.18;100.00;46625.22;4943482;28;20038;-68
2023/08/09 04:46:41;;;;;;;24.03;9.83;;;;;;;-145.18;100.00;46625.22;4946783;28;20058;-68
2023/08/09 04:49:06;;;;;;;15.53;9.60;;;;;;;-145.18;100.00;46627.19;4942925;28;20543;-68
2023/08/09 04:51:32;;;;;;;19.67;10.77;;;;;;;-145.18;100.00;46623.28;4938945;28;20087;-68
2023/08/09 04:53:57;;;;;;;26.93;11.97;;;;;;;-145.18;100.00;46627.19;4934691;28;20027;-68
2023/08/09 04:56:23;;;;;;;25.33;12.43;;;;;;;-145.18;100.00;46621.31;4935231;28;20063;-69
2023/08/09 04:58:48;;;;;;;30.77;13.10;;;;;;;-145.18;100.00;46625.22;4945145;29;20391;-68
2023/08/09 05:01:13;;;;;;;18.07;11.47;;;;;;;-145.18;100.00;46623.28;4937731;28;20031;-68
2023/08/09 05:03:39;;;;;;;20.57;12.37;;;;;;;-145.18;100.00;46627.19;4942964;28;20498;-68
2023/08/09 05:06:05;;;;;;;26.87;13.23;;;;;;;-145.18;100.00;46625.22;4943277;28;20795;-68
2023/08/09 05:08:30;;;;;;;22.13;13.17;;;;;;;-145.18;100.00;46625.22;4935069;29;20031;-69
2023/08/09 05:10:55;;;;;;;24.63;13.57;;;;;;;-145.18;100.00;46625.22;4935715;28;20047;-68
2023/08/09 05:13:21;;;;;;;20.53;13.13;;;;;;;-145.18;100.00;46621.31;4934729;29;20028;-68
2023/08/09 05:15:46;;;;;;;26.80;14.17;;;;;;;-145.18;100.00;46625.22;4934552;28;20428;-68
2023/08/09 05:18:12;;;;;;;26.40;14.33;;;;;;;-145.18;100.00;46625.22;4934896;29;20027;-68
2023/08/09 05:20:37;;;;;;;27.70;14.33;;;;;;;-145.18;100.00;46625.22;4935932;28;20364;-65
2023/08/09 05:23:03;;;;;;;27.27;15.40;;;;;;;-145.18;100.00;46625.22;4934354;28;20043;-65
2023/08/09 05:25:29;;;;;;;31.90;17.40;;;;;;;-145.18;100.00;46621.31;4935328;29;20036;-65
2023/08/09 05:27:55;;;;;;;28.30;16.77;;;;;;;-145.18;100.00;46621.31;4936411;28;20027;-65
2023/08/09 05:30:22;;;;;;;30.57;17.33;;;;;;;-145.18;100.00;46617.41;4937075;28;20035;-65
2023/08/09 05:32:47;;;;;;;27.50;15.53;;;;;;;-145.18;100.00;46619.38;4947355;28;20019;-64
2023/08/09 05:35:13;;;;;;;27.53;14.90;;;;;;;-145.18;100.00;46621.31;4943089;29;20034;-65
2023/08/09 05:37:39;;;;;;;28.27;15.13;;;;;;;-145.18;100.00;46621.31;4935169;28;20840;-65
2023/08/09 05:40:09;;;;;;;26.03;14.70;;;;;;;-145.18;100.00;46617.41;4942706;28;20030;-65
2023/08/09 05:42:35;;;;;;;26.27;15.00;;;;;;;-145.18;100.00;46613.50;4933952;28;20511;-65
2023/08/09 05:45:00;;;;;;;29.07;15.57;;;;;;;-145.18;100.00;46615.47;4934296;28;20059;-65
2023/08/09 05:47:25;;;;;;;27.17;15.37;;;;;;;-145.18;100.00;46619.38;4942745;29;20163;-65
2023/08/09 05:49:51;;;;;;;26.30;16.13;;;;;;;-145.18;100.00;46617.41;4938167;28;20163;-64
2023/08/09 05:52:16;;;;;;;31.87;17.13;;;;;;;-145.18;100.00;46625.22;4934956;28;20102;-64
2023/08/09 05:54:42;;;;;;;29.03;17.03;;;;;;;-145.18;100.00;46621.31;4942926;28;20492;-65
2023/08/09 05:57:07;;;;;;;29.13;16.03;;;;;;;-145.18;100.00;46619.38;4950841;28;20110;-65
2023/08/09 05:59:33;;;;;;;26.07;15.93;;;;;;;-145.18;100.00;46623.28;4938577;28;20027;-65
2023/08/09 06:01:58;;;;;;;25.70;15.50;;;;;;;-145.18;100.00;46621.31;4938412;28;20493;-65
2023/08/09 06:04:24;;;;;;;31.70;15.47;;;;;;;-145.18;100.00;46621.31;4934978;28;20106;-65
2023/08/09 06:06:50;;;;;;;26.33;15.20;;;;;;;-145.18;100.00;46623.28;4939221;28;20112;-65
2023/08/09 06:09:15;;;;;;;29.60;16.27;;;;;;;-145.18;100.00;46621.31;4945681;28;20040;-65
2023/08/09 06:11:41;;;;;;;27.13;15.90;;;;;;;-145.18;100.00;46621.31;4930369;28;20443;-65
2023/08/09 06:14:07;;;;;;;27.63;15.23;;;;;;;-145.18;100.00;46621.31;4940471;29;20015;-65
2023/08/09 06:16:34;;;;;;;26.23;15.17;;;;;;;-145.18;100.00;46619.38;4939133;29;20549;-65
2023/08/09 06:19:00;;;;;;;32.57;17.47;;;;;;;-145.18;100.00;46621.31;4932887;28;20047;-65
2023/08/09 06:21:25;;;;;;;34.43;17.10;;;;;;;-145.18;100.00;46619.38;4949162;28;20043;-66
2023/08/09 06:23:51;;;;;;;29.63;18.10;;;;;;;-145.18;100.00;46615.47;4939698;28;20035;-65
2023/08/09 06:26:16;;;;;;;27.63;15.30;;;;;;;-145.18;100.00;46617.41;4939815;28;20027;-65
2023/08/09 06:28:42;;;;;;;29.63;16.30;;;;;;;-145.18;100.00;46615.47;4941978;28;20030;-65
2023/08/09 06:31:07;;;;;;;32.57;16.43;;;;;;;-145.18;100.00;46613.50;4951752;28;20027;-65
2023/08/09 06:33:37;;;;;;;31.30;17.40;;;;;;;-145.18;100.00;46617.41;4952573;28;20027;-65
2023/08/09 06:36:03;;;;;;;32.73;17.97;;;;;;;-145.18;100.00;46621.31;4950947;28;20054;-65
2023/08/09 06:38:30;;;;;;;30.10;17.17;;;;;;;-145.18;100.00;46617.41;4945317;28;20154;-65
2023/08/09 06:40:56;;;;;;;32.73;17.80;;;;;;;-145.18;100.00;46613.50;4946215;28;20405;-65
2023/08/09 06:43:21;;;;;;;33.87;16.90;;;;;;;-145.18;100.00;46615.47;4951924;28;20035;-65
2023/08/09 06:45:48;;;;;;;32.07;16.30;;;;;;;-145.18;100.00;46617.41;4952250;28;20035;-65
2023/08/09 06:48:14;;;;;;;28.20;17.33;;;;;;;-145.18;100.00;46615.47;4952434;28;20261;-65
2023/08/09 06:50:39;;;;;;;34.53;18.17;;;;;;;-145.18;100.00;46617.41;4944155;28;20113;-65
2023/08/09 06:53:05;;;;;;;29.30;17.20;;;;;;;-145.18;100.00;46617.41;4952657;28;20031;-65
2023/08/09 06:55:31;;;;;;;29.03;16.20;;;;;;;-145.18;100.00;46621.31;4949787;28;20024;-65
2023/08/09 06:57:56;;;;;;;28.57;16.30;;;;;;;-145.18;100.00;46625.22;4950695;28;20027;-65
2023/08/09 07:00:22;;;;;;;21.77;13.53;;;;;;;-145.18;100.00;46623.28;4951594;29;20035;-65
2023/08/09 07:02:47;;;;;;;22.70;13.43;;;;;;;-145.18;100.00;46621.31;4950387;28;20460;-65
2023/08/09 07:05:18;;;;;;;20.87;10.93;;;;;;;-145.18;100.00;46629.13;4951334;29;20031;-65
2023/08/09 07:07:51;;;;;;;20.10;11.77;;;;;;;-145.18;100.00;46621.31;4939928;29;20029;-65
2023/08/09 07:10:17;;;;;;;18.30;11.40;;;;;;;-145.18;100.00;46631.09;4950087;29;20039;-65
2023/08/09 07:12:43;;;;;;;19.77;11.47;;;;;;;-145.18;100.00;46633.06;4952127;28;20027;-65
2023/08/09 07:15:09;;;;;;;19.47;10.73;;;;;;;-145.18;100.00;46633.06;4951263;28;20054;-65
2023/08/09 07:17:35;;;;;;;16.97;10.73;;;;;;;-145.18;100.00;46631.09;4952597;28;20035;-65
2023/08/09 07:20:02;;;;;;;19.93;11.93;;;;;;;-145.18;100.00;46629.13;4955308;28;20031;-65
2023/08/09 07:22:27;;;;;;;21.87;11.37;;;;;;;-145.18;100.00;46636.94;4955573;28;20166;-65
2023/08/09 07:24:53;;;;;;;22.70;12.33;;;;;;;-145.18;100.00;46633.06;4955803;29;20043;-65
2023/08/09 07:27:18;;;;;;;18.27;11.23;;;;;;;-145.18;100.00;46642.81;4956246;28;20506;-65
2023/08/09 07:29:43;;;;;;;14.00;9.73;;;;;;;-145.18;100.00;46633.06;4955360;28;20062;-65
2023/08/09 07:32:09;;;;;;;13.60;8.97;;;;;;;-145.18;100.00;46638.91;4955464;29;20034;-65
2023/08/09 07:34:35;;;;;;;13.93;8.67;;;;;;;-145.18;100.00;46640.88;4954173;28;20061;-65
2023/08/09 07:37:00;;;;;;;16.23;7.83;;;;;;;-145.18;100.00;46644.78;4955381;28;20070;-65
2023/08/09 07:39:25;;;;;;;11.73;7.73;;;;;;;-145.18;100.00;46640.88;4955529;28;20062;-68
2023/08/09 07:41:51;;;;;;;14.07;7.30;;;;;;;-145.18;100.00;46646.72;4955479;29;20039;-69
2023/08/09 07:44:16;;;;;;;10.37;6.80;;;;;;;-145.18;100.00;46646.72;4953544;28;20114;-69
2023/08/09 07:46:42;;;;;;;9.13;6.10;;;;;;;-145.18;100.00;46640.88;4954094;28;20039;-68
2023/08/09 07:49:07;;;;;;;9.87;6.07;;;;;;;-145.18;100.00;46650.63;4953415;28;20183;-68
2023/08/09 07:51:33;;;;;;;11.37;6.43;;;;;;;-145.18;100.00;46646.72;4955446;28;20110;-68
2023/08/09 07:53:58;;;;;;;8.30;5.23;;;;;;;-145.18;100.00;46650.63;4955261;28;20486;-68
2023/08/09 07:56:24;;;;;;;7.53;4.77;;;;;;;-145.18;100.00;46652.59;4954029;28;20035;-68
2023/08/09 07:58:50;;;;;;;7.80;4.60;;;;;;;-145.18;100.00;46664.31;4955187;28;20093;-68
2023/08/09 08:01:15;;;;;;;13.47;5.37;;;;;;;-145.18;100.00;46654.53;4955060;28;20106;-68
2023/08/09 08:03:41;;;;;;;6.00;4.20;;;;;;;-145.18;100.00;46660.41;4955128;28;20047;-68
2023/08/09 08:06:06;;;;;;;8.67;3.80;;;;;;;-145.18;100.00;46660.41;4954746;28;20042;-68
2023/08/09 08:08:32;;;;;;;4.73;3.57;;;;;;;-145.18;100.00;46664.31;4954891;28;20444;-68
2023/08/09 08:10:58;;;;;;;9.13;3.90;;;;;;;-145.18;100.00;46668.22;4953749;28;20038;-68
2023/08/09 08:13:23;;;;;;;6.47;4.43;;;;;;;-145.18;100.00;46668.22;4954879;28;20028;-68
2023/08/09 08:15:50;;;;;;;11.50;4.40;;;;;;;-145.18;100.00;46664.31;4954733;28;20041;-68
2023/08/09 08:18:15;;;;;;;5.50;4.20;;;;;;;-145.18;100.00;46670.16;4954625;28;20027;-68
2023/08/09 08:20:41;;;;;;;9.50;3.90;;;;;;;-145.18;100.00;46670.16;4954981;28;20035;-68
2023/08/09 08:23:06;;;;;;;7.80;4.17;;;;;;;-145.18;100.00;46676.03;4953481;29;20039;-69
2023/08/09 08:25:32;;;;;;;5.63;3.97;;;;;;;-145.18;100.00;46674.06;4954977;28;20610;-68
2023/08/09 08:27:57;;;;;;;8.30;3.93;;;;;;;-145.18;100.00;46674.06;4953938;28;20236;-69
2023/08/09 08:30:23;;;;;;;6.37;3.90;;;;;;;-145.18;100.00;46676.03;4954389;28;20495;-69
2023/08/09 08:32:49;;;;;;;5.77;4.17;;;;;;;-145.18;100.00;46677.97;4954626;28;20044;-68
2023/08/09 08:35:20;;;;;;;8.60;3.53;;;;;;;-145.18;100.00;46679.94;4954517;28;20030;-68
2023/08/09 08:37:46;;;;;;;6.50;3.33;;;;;;;-145.18;100.00;46681.88;4953186;28;20499;-68
2023/08/09 08:40:17;;;;;;;3.80;3.00;;;;;;;-145.18;100.00;46681.88;4954231;28;20130;-70
2023/08/09 08:42:47;;;;;;;5.67;3.50;;;;;;;-145.18;100.00;46687.75;4946088;28;20435;-68
2023/08/09 08:45:15;;;;;;;9.10;3.57;;;;;;;-145.18;100.00;46676.03;4954171;28;20039;-68
2023/08/09 08:47:42;;;;;;;5.60;3.70;;;;;;;-145.18;100.00;46689.69;4950496;28;20027;-68
2023/08/09 08:50:09;;;;;;;5.73;3.00;;;;;;;-145.18;100.00;46677.97;4947228;28;20094;-65
2023/08/09 08:52:40;;;;;;;5.07;2.97;;;;;;;-145.18;100.00;46687.75;4950603;29;20035;-64
2023/08/09 08:55:09;;;;;;;5.43;3.00;;;;;;;-145.18;100.00;46687.75;4954143;28;20502;-65
2023/08/09 08:57:35;;;;;;;4.37;3.30;;;;;;;-145.18;100.00;46685.78;4953958;28;20042;-64
2023/08/09 09:00:07;;;;;;;7.07;3.63;;;;;;;-145.18;100.00;46685.78;4953750;28;20078;-65
2023/08/09 09:02:33;;;;;;;4.27;2.97;;;;;;;-145.18;100.00;46695.56;4951605;28;20039;-64
2023/08/09 09:04:59;;;;;;;6.63;2.70;;;;;;;-145.18;100.00;46697.50;4955760;28;20387;-65
2023/08/09 09:07:25;;;;;;;4.67;2.80;;;;;;;-145.18;100.00;46697.50;4953515;28;20062;-65
2023/08/09 09:10:03;;;;;;;5.43;2.73;;;;;;;-145.18;100.00;46689.69;4950259;28;20039;-65
2023/08/09 09:12:29;;;;;;;4.27;2.90;;;;;;;-145.18;100.00;46621.31;4953675;28;20102;-65
2023/08/09 09:14:55;;;;;;;4.67;2.60;;;;;;;-145.18;100.00;46576.41;4953902;28;20496;-65
2023/08/09 09:17:21;;;;;;;5.80;2.10;;;;;;;-145.18;100.00;46580.31;4953720;28;20039;-65
2023/08/09 09:19:47;;;;;;;6.10;2.50;;;;;;;-145.18;100.00;46662.34;4952593;28;20046;-64
2023/08/09 09:22:31;;;;;;;10.17;2.87;;;;;;;-145.18;100.00;46693.59;4940926;29;20035;-64
2023/08/09 09:24:58;;;;;;;4.27;3.07;;;;;;;-145.18;100.00;46693.59;4950146;28;20384;-65
2023/08/09 09:27:31;;;;;;;4.17;2.90;;;;;;;-145.18;100.00;46697.50;4953237;28;20031;-64
2023/08/09 09:30:14;;;;;;;4.40;2.83;;;;;;;-145.18;100.00;46697.50;4940007;28;21446;-64
2023/08/09 09:32:51;;;;;;;5.23;3.37;;;;;;;-145.18;100.00;46695.56;4950907;29;20117;-65
2023/08/09 09:35:27;;;;;;;4.67;2.60;;;;;;;-145.18;100.00;46695.56;4949623;29;20043;-65
2023/08/09 09:37:55;;;;;;;4.57;2.80;;;;;;;-145.18;100.00;46699.47;4953006;28;20051;-64
2023/08/09 09:40:22;;;;;;;4.70;2.73;;;;;;;-145.18;100.00;46664.31;4949911;28;20105;-64
2023/08/09 09:42:52;;;;;;;6.33;2.70;;;;;;;-145.18;100.00;46599.84;4953273;28;20038;-65
2023/08/09 09:45:22;;;;;;;7.30;2.60;;;;;;;-145.18;100.00;46609.59;4939031;28;20031;-64
2023/08/09 09:47:48;;;;;;;8.23;2.83;;;;;;;-145.18;100.00;46586.16;4952191;28;20023;-64
2023/08/09 09:50:14;;;;;;;2.87;2.33;;;;;;;-145.18;100.00;46572.50;4949678;28;20023;-64
2023/08/09 09:52:39;;;;;;;3.37;2.47;;;;;;;-145.18;100.00;46576.41;4932896;29;20485;-65
2023/08/09 09:55:06;;;;;;;5.20;2.67;;;;;;;-145.18;100.00;46578.34;4942298;28;20167;-64
2023/08/09 09:57:32;;;;;;;5.03;2.40;;;;;;;-145.18;100.00;46578.34;4935667;29;20039;-64
2023/08/09 09:59:59;;;;;;;5.80;2.50;;;;;;;-145.18;100.00;46570.53;4941903;29;20034;-68
2023/08/09 10:02:31;;;;;;;2.87;2.10;;;;;;;-145.18;100.00;46576.41;4940487;28;20054;-68
2023/08/09 10:04:59;;;;;;;6.43;2.33;;;;;;;-145.18;100.00;46580.31;4950110;28;20027;-68
2023/08/09 10:07:29;;;;;;;4.17;2.30;;;;;;;-145.18;100.00;46580.31;4950390;29;20499;-68
2023/08/09 10:09:55;;;;;;;7.03;2.60;;;;;;;-145.18;100.00;46570.53;4952749;28;20062;-68
2023/08/09 10:12:22;;;;;;;4.23;2.63;;;;;;;-145.18;100.00;46590.06;4949969;28;20031;-68
2023/08/09 10:14:48;;;;;;;4.10;2.57;;;;;;;-145.18;100.00;46685.78;4951713;29;20059;-68
2023/08/09 10:17:15;;;;;;;6.67;2.50;;;;;;;-145.18;100.00;46695.56;4944023;29;20037;-69
2023/08/09 10:19:43;;;;;;;4.33;2.20;;;;;;;-145.18;100.00;46701.41;4950197;28;20058;-68
2023/08/09 10:22:11;;;;;;;4.60;2.17;;;;;;;-145.18;100.00;46693.59;4952587;28;20039;-68
2023/08/09 10:24:43;;;;;;;6.27;2.40;;;;;;;-145.18;100.00;46697.50;4952441;28;20322;-68
2023/08/09 10:27:10;;;;;;;4.43;2.23;;;;;;;-145.18;100.00;46695.56;4952572;28;20093;-68
2023/08/09 10:29:41;;;;;;;3.50;2.23;;;;;;;-145.18;100.00;46623.28;4950786;28;20039;-68
2023/08/09 10:32:06;;;;;;;3.20;2.07;;;;;;;-145.18;100.00;46586.16;4952312;28;20625;-68
2023/08/09 10:34:37;;;;;;;3.53;1.83;;;;;;;-145.18;100.00;46590.06;4952360;28;20027;-68
2023/08/09 10:37:04;;;;;;;5.67;2.20;;;;;;;-145.18;100.00;46572.50;4952278;28;20102;-68
2023/08/09 10:39:31;;;;;;;6.47;2.47;;;;;;;-145.18;100.00;46570.53;4952397;28;20427;-68
2023/08/09 10:41:59;;;;;;;5.30;2.47;;;;;;;-145.18;100.00;46574.44;4952113;28;20066;-68
2023/08/09 10:44:38;;;;;;;3.93;1.53;;;;;;;-145.18;100.00;46570.53;4951743;28;20039;-68
2023/08/09 10:47:06;;;;;;;5.50;2.17;;;;;;;-145.18;100.00;46572.50;4949246;28;20039;-68
2023/08/09 10:49:56;;;;;;;2.90;2.17;;;;;;;-145.18;100.00;46582.25;4951442;28;20114;-68
2023/08/09 10:52:41;;;;;;;5.43;1.80;;;;;;;-145.18;100.00;46578.34;4943954;28;20047;-68
2023/08/09 10:55:09;;;;;;;2.53;1.73;;;;;;;-145.18;100.00;46582.25;4951882;28;20035;-68
2023/08/09 10:57:42;;;;;;;1.60;1.30;;;;;;;-145.18;100.00;46576.41;4951389;28;20365;-68
2023/08/09 11:00:12;;;;;;;2.97;1.20;;;;;;;-145.18;100.00;46590.06;4951140;28;20023;-68
2023/08/09 11:02:48;;;;;;;2.23;1.40;;;;;;;-145.18;100.00;46570.53;4939545;28;20036;-67